sensor_id;sensor_type;location;lat;lon;timestamp;pressure;altitude;pressure_sealevel;temperature;humidity
20444;BME280;10381;53.730;10.010;2023-02-19T00:00:53;101136.88;;;2.43;100.00
20444;BME280;10381;53.730;10.010;2023-02-19T00:04:53;101130.56;;;2.47;100.00
20444;BME280;10381;53.730;10.010;2023-02-19T00:08:54;101133.09;;;2.49;100.00
20444;BME280;10381;53.730;10.010;2023-02-19T00:12:54;101135.56;;;2.52;100.00
20444;BME280;10381;53.730;10.010;2023-02-19T00:16:55;101133.72;;;2.54;100.00
20444;BME280;10381;53.730;10.010;2023-02-19T00:20:55;101131.94;;;2.54;100.00
20444;BME280;10381;53.730;10.010;2023-02-19T00:24:56;101126.03;;;2.51;100.00
20444;BME280;10381;53.730;10.010;2023-02-19T00:28:57;101121.63;;;2.51;100.00
20444;BME280;10381;53.730;10.010;2023-02-19T00:32:58;101124.19;;;2.53;100.00
20444;BME280;10381;53.730;10.010;2023-02-19T00:36:58;101128.50;;;2.54;100.00
20444;BME280;10381;53.730;10.010;2023-02-19T00:40:58;101132.09;;;2.51;100.00
20444;BME280;10381;53.730;10.010;2023-02-19T00:44:59;101142.28;;;2.58;100.00
20444;BME280;10381;53.730;10.010;2023-02-19T00:49:00;101135.28;;;2.58;100.00
20444;BME280;10381;53.730;10.010;2023-02-19T00:53:00;101146.56;;;2.59;100.00
20444;BME280;10381;53.730;10.010;2023-02-19T00:57:00;101155.41;;;2.56;100.00
20444;BME280;10381;53.730;10.010;2023-02-19T01:01:02;101152.75;;;2.58;100.00
20444;BME280;10381;53.730;10.010;2023-02-19T01:05:02;101151.03;;;2.56;100.00
20444;BME280;10381;53.730;10.010;2023-02-19T01:09:04;101165.50;;;2.64;100.00
20444;BME280;10381;53.730;10.010;2023-02-19T01:13:04;101160.59;;;2.58;100.00
20444;BME280;10381;53.730;10.010;2023-02-19T01:17:04;101166.44;;;2.63;100.00
20444;BME280;10381;53.730;10.010;2023-02-19T01:21:06;101160.59;;;2.58;100.00
20444;BME280;10381;53.730;10.010;2023-02-19T01:25:07;101164.03;;;2.58;100.00
20444;BME280;10381;53.730;10.010;2023-02-19T01:29:07;101158.97;;;2.55;100.00
20444;BME280;10381;53.730;10.010;2023-02-19T01:33:08;101159.81;;;2.55;100.00
20444;BME280;10381;53.730;10.010;2023-02-19T01:37:09;101163.19;;;2.58;100.00
20444;BME280;10381;53.730;10.010;2023-02-19T01:41:13;101165.31;;;2.49;100.00
20444;BME280;10381;53.730;10.010;2023-02-19T01:45:33;101159.09;;;2.52;100.00
20444;BME280;10381;53.730;10.010;2023-02-19T01:49:42;101161.50;;;2.56;100.00
20444;BME280;10381;53.730;10.010;2023-02-19T01:53:53;101153.97;;;2.50;100.00
20444;BME280;10381;53.730;10.010;2023-02-19T01:57:55;101154.31;;;2.43;100.00
20444;BME280;10381;53.730;10.010;2023-02-19T02:01:56;101153.47;;;2.42;100.00
20444;BME280;10381;53.730;10.010;2023-02-19T02:06:08;101153.19;;;2.48;100.00
20444;BME280;10381;53.730;10.010;2023-02-19T02:10:11;101151.91;;;2.38;100.00
20444;BME280;10381;53.730;10.010;2023-02-19T02:14:24;101152.81;;;2.56;100.00
20444;BME280;10381;53.730;10.010;2023-02-19T02:18:36;101149.13;;;2.60;100.00
20444;BME280;10381;53.730;10.010;2023-02-19T02:22:43;101154.19;;;2.46;100.00
20444;BME280;10381;53.730;10.010;2023-02-19T02:31:48;101152.59;;;2.24;100.00
20444;BME280;10381;53.730;10.010;2023-02-19T02:35:52;101155.06;;;2.27;100.00
20444;BME280;10381;53.730;10.010;2023-02-19T02:39:56;101156.31;;;2.19;100.00
20444;BME280;10381;53.730;10.010;2023-02-19T02:43:57;101150.25;;;2.18;100.00
20444;BME280;10381;53.730;10.010;2023-02-19T02:47:57;101140.03;;;2.13;100.00
20444;BME280;10381;53.730;10.010;2023-02-19T02:51:59;101139.56;;;2.05;100.00
20444;BME280;10381;53.730;10.010;2023-02-19T02:56:21;101133.75;;;1.99;100.00
20444;BME280;10381;53.730;10.010;2023-02-19T03:00:23;101141.03;;;1.92;100.00
20444;BME280;10381;53.730;10.010;2023-02-19T03:04:57;101141.53;;;1.81;100.00
20444;BME280;10381;53.730;10.010;2023-02-19T03:09:25;101145.78;;;1.84;100.00
20444;BME280;10381;53.730;10.010;2023-02-19T03:13:34;101151.00;;;1.84;100.00
20444;BME280;10381;53.730;10.010;2023-02-19T03:17:58;101150.38;;;1.79;100.00
20444;BME280;10381;53.730;10.010;2023-02-19T03:22:25;101165.00;;;1.83;100.00
20444;BME280;10381;53.730;10.010;2023-02-19T03:26:27;101156.00;;;1.69;100.00
20444;BME280;10381;53.730;10.010;2023-02-19T03:30:30;101163.84;;;1.69;100.00
20444;BME280;10381;53.730;10.010;2023-02-19T03:34:35;101171.69;;;1.69;100.00
20444;BME280;10381;53.730;10.010;2023-02-19T03:39:02;101172.47;;;1.72;100.00
20444;BME280;10381;53.730;10.010;2023-02-19T03:51:38;101176.81;;;1.52;100.00
20444;BME280;10381;53.730;10.010;2023-02-19T03:55:50;101181.91;;;1.55;100.00
20444;BME280;10381;53.730;10.010;2023-02-19T03:59:58;101190.13;;;1.46;100.00
20444;BME280;10381;53.730;10.010;2023-02-19T04:04:16;101197.50;;;1.36;100.00
20444;BME280;10381;53.730;10.010;2023-02-19T04:08:19;101193.03;;;1.19;100.00
20444;BME280;10381;53.730;10.010;2023-02-19T04:12:21;101196.66;;;1.15;100.00
20444;BME280;10381;53.730;10.010;2023-02-19T04:16:26;101196.94;;;1.30;100.00
20444;BME280;10381;53.730;10.010;2023-02-19T04:20:32;101195.78;;;1.16;100.00
20444;BME280;10381;53.730;10.010;2023-02-19T04:24:41;101201.88;;;1.15;100.00
20444;BME280;10381;53.730;10.010;2023-02-19T04:28:43;101214.94;;;1.15;100.00
20444;BME280;10381;53.730;10.010;2023-02-19T04:32:43;101226.59;;;0.86;100.00
20444;BME280;10381;53.730;10.010;2023-02-19T04:36:44;101228.53;;;0.81;100.00
20444;BME280;10381;53.730;10.010;2023-02-19T04:40:44;101231.97;;;0.81;100.00
20444;BME280;10381;53.730;10.010;2023-02-19T04:44:45;101232.25;;;0.75;100.00
20444;BME280;10381;53.730;10.010;2023-02-19T04:48:46;101240.25;;;0.71;100.00
20444;BME280;10381;53.730;10.010;2023-02-19T04:52:46;101237.69;;;0.91;100.00
20444;BME280;10381;53.730;10.010;2023-02-19T04:56:46;101246.47;;;0.89;100.00
20444;BME280;10381;53.730;10.010;2023-02-19T05:00:50;101254.97;;;0.94;100.00
20444;BME280;10381;53.730;10.010;2023-02-19T05:04:50;101254.19;;;0.92;100.00
20444;BME280;10381;53.730;10.010;2023-02-19T05:08:51;101257.22;;;0.81;100.00
20444;BME280;10381;53.730;10.010;2023-02-19T05:12:53;101262.22;;;0.65;100.00
20444;BME280;10381;53.730;10.010;2023-02-19T05:16:53;101269.47;;;0.57;100.00
20444;BME280;10381;53.730;10.010;2023-02-19T05:20:56;101269.59;;;0.54;100.00
20444;BME280;10381;53.730;10.010;2023-02-19T05:24:59;101277.41;;;0.32;100.00
20444;BME280;10381;53.730;10.010;2023-02-19T05:29:00;101281.94;;;0.27;100.00
20444;BME280;10381;53.730;10.010;2023-02-19T05:33:01;101284.34;;;0.31;100.00
20444;BME280;10381;53.730;10.010;2023-02-19T05:37:01;101287.88;;;0.30;100.00
20444;BME280;10381;53.730;10.010;2023-02-19T05:41:08;101292.75;;;0.39;100.00
20444;BME280;10381;53.730;10.010;2023-02-19T05:45:08;101302.38;;;0.37;100.00
20444;BME280;10381;53.730;10.010;2023-02-19T05:49:08;101311.31;;;0.30;100.00
20444;BME280;10381;53.730;10.010;2023-02-19T05:53:09;101310.31;;;0.34;100.00
20444;BME280;10381;53.730;10.010;2023-02-19T05:57:09;101318.34;;;0.52;100.00
20444;BME280;10381;53.730;10.010;2023-02-19T06:01:16;101319.66;;;0.40;100.00
20444;BME280;10381;53.730;10.010;2023-02-19T06:05:17;101330.97;;;0.15;100.00
20444;BME280;10381;53.730;10.010;2023-02-19T06:09:17;101336.91;;;-0.05;100.00
20444;BME280;10381;53.730;10.010;2023-02-19T06:13:17;101342.28;;;-0.09;100.00
20444;BME280;10381;53.730;10.010;2023-02-19T06:17:18;101359.72;;;-0.11;100.00
20444;BME280;10381;53.730;10.010;2023-02-19T06:21:18;101352.75;;;-0.11;100.00
20444;BME280;10381;53.730;10.010;2023-02-19T06:25:19;101365.56;;;-0.05;100.00
20444;BME280;10381;53.730;10.010;2023-02-19T06:29:19;101376.00;;;0.19;100.00
20444;BME280;10381;53.730;10.010;2023-02-19T06:33:20;101382.56;;;0.06;100.00
20444;BME280;10381;53.730;10.010;2023-02-19T06:37:20;101391.81;;;0.14;100.00
20444;BME280;10381;53.730;10.010;2023-02-19T06:41:20;101395.47;;;0.34;100.00
20444;BME280;10381;53.730;10.010;2023-02-19T06:45:20;101413.72;;;0.34;100.00
20444;BME280;10381;53.730;10.010;2023-02-19T06:49:21;101416.38;;;0.32;100.00
20444;BME280;10381;53.730;10.010;2023-02-19T06:53:22;101422.28;;;0.37;100.00
20444;BME280;10381;53.730;10.010;2023-02-19T06:57:22;101426.91;;;0.29;100.00
20444;BME280;10381;53.730;10.010;2023-02-19T07:01:23;101430.19;;;0.09;100.00
20444;BME280;10381;53.730;10.010;2023-02-19T07:05:23;101435.81;;;-0.03;100.00
20444;BME280;10381;53.730;10.010;2023-02-19T07:09:23;101454.44;;;0.11;100.00
20444;BME280;10381;53.730;10.010;2023-02-19T07:13:25;101461.81;;;0.25;100.00
20444;BME280;10381;53.730;10.010;2023-02-19T07:17:25;101473.59;;;0.35;100.00
20444;BME280;10381;53.730;10.010;2023-02-19T07:21:26;101482.63;;;0.50;100.00
20444;BME280;10381;53.730;10.010;2023-02-19T07:25:27;101485.53;;;0.68;100.00
20444;BME280;10381;53.730;10.010;2023-02-19T07:29:27;101494.31;;;0.89;100.00
20444;BME280;10381;53.730;10.010;2023-02-19T07:33:28;101503.41;;;1.02;100.00
20444;BME280;10381;53.730;10.010;2023-02-19T07:37:28;101503.72;;;1.16;100.00
20444;BME280;10381;53.730;10.010;2023-02-19T07:41:28;101520.75;;;1.26;100.00
20444;BME280;10381;53.730;10.010;2023-02-19T07:45:29;101527.84;;;1.23;100.00
20444;BME280;10381;53.730;10.010;2023-02-19T07:49:29;101530.63;;;1.18;100.00
20444;BME280;10381;53.730;10.010;2023-02-19T07:53:29;101528.41;;;1.08;100.00
20444;BME280;10381;53.730;10.010;2023-02-19T07:57:30;101533.63;;;1.08;100.00
20444;BME280;10381;53.730;10.010;2023-02-19T08:01:30;101544.00;;;1.09;100.00
20444;BME280;10381;53.730;10.010;2023-02-19T08:05:49;101564.66;;;1.15;100.00
20444;BME280;10381;53.730;10.010;2023-02-19T08:09:52;101559.59;;;1.34;100.00
20444;BME280;10381;53.730;10.010;2023-02-19T08:14:12;101561.06;;;1.65;100.00
20444;BME280;10381;53.730;10.010;2023-02-19T08:18:14;101556.13;;;1.79;100.00
20444;BME280;10381;53.730;10.010;2023-02-19T08:22:15;101562.97;;;1.83;100.00
20444;BME280;10381;53.730;10.010;2023-02-19T08:26:15;101555.69;;;1.90;100.00
20444;BME280;10381;53.730;10.010;2023-02-19T08:30:16;101561.19;;;2.06;100.00
20444;BME280;10381;53.730;10.010;2023-02-19T08:34:16;101573.44;;;2.26;100.00
20444;BME280;10381;53.730;10.010;2023-02-19T08:38:17;101579.59;;;2.25;100.00
20444;BME280;10381;53.730;10.010;2023-02-19T08:42:17;101593.78;;;2.40;100.00
20444;BME280;10381;53.730;10.010;2023-02-19T08:46:17;101604.13;;;2.43;100.00
20444;BME280;10381;53.730;10.010;2023-02-19T08:50:18;101611.94;;;2.65;100.00
20444;BME280;10381;53.730;10.010;2023-02-19T08:54:18;101621.81;;;2.58;100.00
20444;BME280;10381;53.730;10.010;2023-02-19T08:58:18;101635.22;;;2.71;100.00
20444;BME280;10381;53.730;10.010;2023-02-19T09:02:19;101642.94;;;2.74;100.00
20444;BME280;10381;53.730;10.010;2023-02-19T09:06:19;101658.19;;;2.85;100.00
20444;BME280;10381;53.730;10.010;2023-02-19T09:10:20;101667.16;;;2.99;100.00
20444;BME280;10381;53.730;10.010;2023-02-19T09:14:20;101674.81;;;3.04;100.00
20444;BME280;10381;53.730;10.010;2023-02-19T09:18:20;101685.28;;;3.45;100.00
20444;BME280;10381;53.730;10.010;2023-02-19T09:22:21;101687.16;;;3.41;100.00
20444;BME280;10381;53.730;10.010;2023-02-19T09:26:21;101687.44;;;3.75;100.00
20444;BME280;10381;53.730;10.010;2023-02-19T09:30:22;101682.06;;;3.78;100.00
20444;BME280;10381;53.730;10.010;2023-02-19T09:34:24;101683.91;;;3.95;100.00
20444;BME280;10381;53.730;10.010;2023-02-19T09:38:25;101690.44;;;4.05;100.00
20444;BME280;10381;53.730;10.010;2023-02-19T09:42:28;101688.47;;;4.27;100.00
20444;BME280;10381;53.730;10.010;2023-02-19T09:46:34;101674.88;;;4.38;100.00
20444;BME280;10381;53.730;10.010;2023-02-19T09:50:40;101666.09;;;4.57;100.00
20444;BME280;10381;53.730;10.010;2023-02-19T09:54:41;101642.84;;;4.49;100.00
20444;BME280;10381;53.730;10.010;2023-02-19T09:58:46;101659.84;;;4.59;100.00
20444;BME280;10381;53.730;10.010;2023-02-19T10:03:04;101663.56;;;4.55;100.00
20444;BME280;10381;53.730;10.010;2023-02-19T10:07:10;101664.19;;;4.78;100.00
20444;BME280;10381;53.730;10.010;2023-02-19T10:11:12;101665.66;;;5.01;100.00
20444;BME280;10381;53.730;10.010;2023-02-19T10:19:18;101668.03;;;4.88;100.00
20444;BME280;10381;53.730;10.010;2023-02-19T10:23:18;101687.06;;;5.10;100.00
20444;BME280;10381;53.730;10.010;2023-02-19T10:27:19;101688.03;;;5.25;100.00
20444;BME280;10381;53.730;10.010;2023-02-19T10:31:22;101683.41;;;5.64;100.00
20444;BME280;10381;53.730;10.010;2023-02-19T10:35:23;101684.91;;;5.52;100.00
20444;BME280;10381;53.730;10.010;2023-02-19T10:43:29;101696.81;;;5.42;100.00
20444;BME280;10381;53.730;10.010;2023-02-19T10:47:32;101694.19;;;5.42;100.00
20444;BME280;10381;53.730;10.010;2023-02-19T10:51:38;101705.66;;;5.23;100.00
20444;BME280;10381;53.730;10.010;2023-02-19T10:55:39;101727.50;;;5.59;100.00
20444;BME280;10381;53.730;10.010;2023-02-19T10:59:54;101724.38;;;5.68;100.00
20444;BME280;10381;53.730;10.010;2023-02-19T11:04:16;101738.06;;;5.90;100.00
20444;BME280;10381;53.730;10.010;2023-02-19T11:08:20;101735.13;;;5.63;100.00
20444;BME280;10381;53.730;10.010;2023-02-19T11:12:30;101737.34;;;5.71;100.00
20444;BME280;10381;53.730;10.010;2023-02-19T11:16:50;101733.72;;;6.23;100.00
20444;BME280;10381;53.730;10.010;2023-02-19T11:21:02;101733.31;;;6.30;100.00
20444;BME280;10381;53.730;10.010;2023-02-19T11:25:18;101735.28;;;6.43;100.00
20444;BME280;10381;53.730;10.010;2023-02-19T11:29:21;101748.06;;;6.17;100.00
20444;BME280;10381;53.730;10.010;2023-02-19T11:33:24;101741.44;;;6.10;100.00
20444;BME280;10381;53.730;10.010;2023-02-19T11:37:28;101740.28;;;6.31;100.00
20444;BME280;10381;53.730;10.010;2023-02-19T11:45:43;101751.78;;;6.13;100.00
20444;BME280;10381;53.730;10.010;2023-02-19T11:49:57;101756.38;;;6.25;100.00
20444;BME280;10381;53.730;10.010;2023-02-19T11:54:17;101770.47;;;6.24;100.00
20444;BME280;10381;53.730;10.010;2023-02-19T12:16:20;101749.59;;;6.69;100.00
20444;BME280;10381;53.730;10.010;2023-02-19T12:25:03;101779.66;;;7.27;100.00
20444;BME280;10381;53.730;10.010;2023-02-19T12:29:33;101774.69;;;7.06;100.00
20444;BME280;10381;53.730;10.010;2023-02-19T12:33:44;101774.81;;;6.73;100.00
20444;BME280;10381;53.730;10.010;2023-02-19T12:42:51;101772.66;;;7.25;100.00
20444;BME280;10381;53.730;10.010;2023-02-19T12:46:57;101775.91;;;7.45;100.00
20444;BME280;10381;53.730;10.010;2023-02-19T12:51:07;101787.41;;;7.44;100.00
20444;BME280;10381;53.730;10.010;2023-02-19T12:55:21;101768.63;;;7.20;100.00
20444;BME280;10381;53.730;10.010;2023-02-19T13:07:41;101745.19;;;6.22;100.00
20444;BME280;10381;53.730;10.010;2023-02-19T13:15:51;101722.06;;;6.58;100.00
20444;BME280;10381;53.730;10.010;2023-02-19T13:19:57;101739.22;;;6.81;100.00
20444;BME280;10381;53.730;10.010;2023-02-19T13:24:06;101737.13;;;7.02;100.00
20444;BME280;10381;53.730;10.010;2023-02-19T13:28:46;101738.00;;;7.17;100.00
20444;BME280;10381;53.730;10.010;2023-02-19T13:33:01;101741.22;;;6.92;100.00
20444;BME280;10381;53.730;10.010;2023-02-19T13:37:04;101745.13;;;7.01;100.00
20444;BME280;10381;53.730;10.010;2023-02-19T13:41:05;101749.94;;;6.78;100.00
20444;BME280;10381;53.730;10.010;2023-02-19T13:45:21;101735.19;;;6.90;100.00
20444;BME280;10381;53.730;10.010;2023-02-19T13:57:44;101753.19;;;6.52;100.00
20444;BME280;10381;53.730;10.010;2023-02-19T14:06:03;101749.59;;;6.37;100.00
20444;BME280;10381;53.730;10.010;2023-02-19T14:10:11;101748.16;;;6.31;100.00
20444;BME280;10381;53.730;10.010;2023-02-19T14:18:44;101752.56;;;6.47;100.00
20444;BME280;10381;53.730;10.010;2023-02-19T14:26:45;101752.16;;;6.54;100.00
20444;BME280;10381;53.730;10.010;2023-02-19T14:30:51;101746.13;;;6.36;100.00
20444;BME280;10381;53.730;10.010;2023-02-19T14:34:52;101746.03;;;6.06;100.00
20444;BME280;10381;53.730;10.010;2023-02-19T14:38:57;101748.53;;;5.92;100.00
20444;BME280;10381;53.730;10.010;2023-02-19T14:42:59;101738.31;;;6.19;100.00
20444;BME280;10381;53.730;10.010;2023-02-19T14:47:05;101722.25;;;6.08;100.00
20444;BME280;10381;53.730;10.010;2023-02-19T14:51:14;101726.16;;;6.01;100.00
20444;BME280;10381;53.730;10.010;2023-02-19T14:55:25;101726.50;;;5.94;100.00
20444;BME280;10381;53.730;10.010;2023-02-19T14:59:28;101728.81;;;5.83;100.00
20444;BME280;10381;53.730;10.010;2023-02-19T15:03:36;101727.44;;;5.76;100.00
20444;BME280;10381;53.730;10.010;2023-02-19T15:07:36;101737.28;;;5.72;100.00
20444;BME280;10381;53.730;10.010;2023-02-19T15:11:40;101746.81;;;5.58;100.00
20444;BME280;10381;53.730;10.010;2023-02-19T15:15:43;101741.03;;;5.51;100.00
20444;BME280;10381;53.730;10.010;2023-02-19T15:19:44;101746.19;;;5.52;100.00
20444;BME280;10381;53.730;10.010;2023-02-19T15:23:45;101752.84;;;5.42;100.00
20444;BME280;10381;53.730;10.010;2023-02-19T15:27:46;101738.63;;;5.29;100.00
20444;BME280;10381;53.730;10.010;2023-02-19T15:31:54;101741.53;;;5.24;100.00
20444;BME280;10381;53.730;10.010;2023-02-19T15:35:58;101758.53;;;5.17;100.00
20444;BME280;10381;53.730;10.010;2023-02-19T15:40:02;101754.50;;;5.10;100.00
20444;BME280;10381;53.730;10.010;2023-02-19T15:44:18;101754.16;;;4.99;100.00
20444;BME280;10381;53.730;10.010;2023-02-19T15:48:27;101747.19;;;4.80;100.00
20444;BME280;10381;53.730;10.010;2023-02-19T15:52:42;101764.72;;;4.80;100.00
20444;BME280;10381;53.730;10.010;2023-02-19T15:56:45;101761.69;;;4.70;100.00
20444;BME280;10381;53.730;10.010;2023-02-19T16:01:04;101765.59;;;4.61;100.00
20444;BME280;10381;53.730;10.010;2023-02-19T16:05:11;101758.94;;;4.54;100.00
20444;BME280;10381;53.730;10.010;2023-02-19T16:09:19;101758.16;;;4.52;100.00
20444;BME280;10381;53.730;10.010;2023-02-19T16:13:23;101761.88;;;4.48;100.00
20444;BME280;10381;53.730;10.010;2023-02-19T16:17:23;101753.69;;;4.35;100.00
20444;BME280;10381;53.730;10.010;2023-02-19T16:21:27;101757.47;;;4.30;100.00
20444;BME280;10381;53.730;10.010;2023-02-19T16:25:31;101778.19;;;4.17;100.00
20444;BME280;10381;53.730;10.010;2023-02-19T16:29:35;101776.66;;;4.11;100.00
20444;BME280;10381;53.730;10.010;2023-02-19T16:37:55;101771.78;;;4.03;100.00
20444;BME280;10381;53.730;10.010;2023-02-19T16:45:58;101773.03;;;3.76;100.00
20444;BME280;10381;53.730;10.010;2023-02-19T16:50:01;101777.41;;;3.75;100.00
20444;BME280;10381;53.730;10.010;2023-02-19T16:54:02;101771.59;;;3.69;100.00
20444;BME280;10381;53.730;10.010;2023-02-19T16:58:03;101783.16;;;3.63;100.00
20444;BME280;10381;53.730;10.010;2023-02-19T17:02:05;101774.16;;;3.50;100.00
20444;BME280;10381;53.730;10.010;2023-02-19T17:06:08;101787.69;;;3.59;100.00
20444;BME280;10381;53.730;10.010;2023-02-19T17:10:22;101784.34;;;3.56;100.00
20444;BME280;10381;53.730;10.010;2023-02-19T17:14:22;101775.78;;;3.52;100.00
20444;BME280;10381;53.730;10.010;2023-02-19T17:18:23;101777.75;;;3.47;100.00
20444;BME280;10381;53.730;10.010;2023-02-19T17:22:23;101777.47;;;3.53;100.00
20444;BME280;10381;53.730;10.010;2023-02-19T17:26:26;101782.31;;;3.62;100.00
20444;BME280;10381;53.730;10.010;2023-02-19T17:30:29;101790.59;;;3.74;100.00
20444;BME280;10381;53.730;10.010;2023-02-19T17:34:30;101792.56;;;3.69;100.00
20444;BME280;10381;53.730;10.010;2023-02-19T17:38:30;101796.94;;;3.68;100.00
20444;BME280;10381;53.730;10.010;2023-02-19T17:42:30;101785.19;;;3.77;100.00
20444;BME280;10381;53.730;10.010;2023-02-19T17:46:31;101798.25;;;3.78;100.00
20444;BME280;10381;53.730;10.010;2023-02-19T17:50:31;101805.25;;;3.78;100.00
20444;BME280;10381;53.730;10.010;2023-02-19T17:54:31;101807.16;;;3.74;100.00
20444;BME280;10381;53.730;10.010;2023-02-19T17:58:33;101817.38;;;3.80;100.00
20444;BME280;10381;53.730;10.010;2023-02-19T18:02:33;101820.00;;;3.80;100.00
20444;BME280;10381;53.730;10.010;2023-02-19T18:06:35;101812.63;;;3.89;100.00
20444;BME280;10381;53.730;10.010;2023-02-19T18:10:35;101813.84;;;3.81;100.00
20444;BME280;10381;53.730;10.010;2023-02-19T18:14:36;101811.41;;;3.77;100.00
20444;BME280;10381;53.730;10.010;2023-02-19T18:18:36;101817.69;;;3.93;100.00
20444;BME280;10381;53.730;10.010;2023-02-19T18:22:39;101822.22;;;3.90;100.00
20444;BME280;10381;53.730;10.010;2023-02-19T18:26:40;101828.31;;;3.90;100.00
20444;BME280;10381;53.730;10.010;2023-02-19T18:30:40;101819.00;;;3.83;100.00
20444;BME280;10381;53.730;10.010;2023-02-19T18:34:40;101809.31;;;3.85;100.00
20444;BME280;10381;53.730;10.010;2023-02-19T18:38:41;101804.91;;;3.86;100.00
20444;BME280;10381;53.730;10.010;2023-02-19T18:42:41;101801.09;;;3.93;100.00
20444;BME280;10381;53.730;10.010;2023-02-19T18:46:41;101789.88;;;3.89;100.00
20444;BME280;10381;53.730;10.010;2023-02-19T18:50:41;101789.09;;;3.87;100.00
20444;BME280;10381;53.730;10.010;2023-02-19T18:54:42;101794.44;;;3.86;100.00
20444;BME280;10381;53.730;10.010;2023-02-19T18:58:42;101798.75;;;3.87;100.00
20444;BME280;10381;53.730;10.010;2023-02-19T19:02:42;101792.47;;;3.91;100.00
20444;BME280;10381;53.730;10.010;2023-02-19T19:06:43;101788.06;;;3.91;100.00
20444;BME280;10381;53.730;10.010;2023-02-19T19:10:43;101779.34;;;3.91;100.00
20444;BME280;10381;53.730;10.010;2023-02-19T19:14:43;101778.56;;;3.89;100.00
20444;BME280;10381;53.730;10.010;2023-02-19T19:18:45;101772.81;;;3.80;100.00
20444;BME280;10381;53.730;10.010;2023-02-19T19:22:50;101765.94;;;3.78;100.00
20444;BME280;10381;53.730;10.010;2023-02-19T19:26:52;101767.88;;;3.73;100.00
20444;BME280;10381;53.730;10.010;2023-02-19T19:30:54;101768.38;;;3.62;100.00
20444;BME280;10381;53.730;10.010;2023-02-19T19:34:54;101772.31;;;3.52;100.00
20444;BME280;10381;53.730;10.010;2023-02-19T19:38:54;101775.94;;;3.49;100.00
20444;BME280;10381;53.730;10.010;2023-02-19T19:42:54;101772.97;;;3.36;100.00
20444;BME280;10381;53.730;10.010;2023-02-19T19:46:55;101771.47;;;3.31;100.00
20444;BME280;10381;53.730;10.010;2023-02-19T19:50:55;101763.09;;;3.23;100.00
20444;BME280;10381;53.730;10.010;2023-02-19T19:54:56;101771.91;;;3.20;100.00
20444;BME280;10381;53.730;10.010;2023-02-19T19:58:56;101786.84;;;3.18;100.00
20444;BME280;10381;53.730;10.010;2023-02-19T20:02:56;101785.78;;;3.22;100.00
20444;BME280;10381;53.730;10.010;2023-02-19T20:06:58;101788.47;;;3.20;100.00
20444;BME280;10381;53.730;10.010;2023-02-19T20:10:59;101784.53;;;3.10;100.00
20444;BME280;10381;53.730;10.010;2023-02-19T20:15:01;101773.00;;;3.14;100.00
20444;BME280;10381;53.730;10.010;2023-02-19T20:19:01;101766.78;;;2.96;100.00
20444;BME280;10381;53.730;10.010;2023-02-19T20:23:01;101772.31;;;2.89;100.00
20444;BME280;10381;53.730;10.010;2023-02-19T20:27:02;101760.78;;;2.93;100.00
20444;BME280;10381;53.730;10.010;2023-02-19T20:31:03;101769.50;;;2.93;100.00
20444;BME280;10381;53.730;10.010;2023-02-19T20:35:04;101758.13;;;2.94;100.00
20444;BME280;10381;53.730;10.010;2023-02-19T20:39:04;101759.44;;;2.84;100.00
20444;BME280;10381;53.730;10.010;2023-02-19T20:43:04;101759.09;;;2.92;100.00
20444;BME280;10381;53.730;10.010;2023-02-19T20:47:04;101752.75;;;2.97;100.00
20444;BME280;10381;53.730;10.010;2023-02-19T20:51:05;101750.94;;;2.99;100.00
20444;BME280;10381;53.730;10.010;2023-02-19T20:55:05;101753.41;;;3.03;100.00
20444;BME280;10381;53.730;10.010;2023-02-19T20:59:07;101751.72;;;3.02;100.00
20444;BME280;10381;53.730;10.010;2023-02-19T21:03:07;101750.69;;;3.06;100.00
20444;BME280;10381;53.730;10.010;2023-02-19T21:07:08;101736.44;;;3.13;100.00
20444;BME280;10381;53.730;10.010;2023-02-19T21:11:08;101721.72;;;3.10;100.00
20444;BME280;10381;53.730;10.010;2023-02-19T21:15:09;101735.88;;;3.05;100.00
20444;BME280;10381;53.730;10.010;2023-02-19T21:19:09;101738.59;;;3.03;100.00
20444;BME280;10381;53.730;10.010;2023-02-19T21:23:10;101736.69;;;3.07;100.00
20444;BME280;10381;53.730;10.010;2023-02-19T21:27:10;101747.09;;;3.08;100.00
20444;BME280;10381;53.730;10.010;2023-02-19T21:31:10;101754.50;;;3.19;100.00
20444;BME280;10381;53.730;10.010;2023-02-19T21:35:10;101742.38;;;3.16;100.00
20444;BME280;10381;53.730;10.010;2023-02-19T21:39:13;101740.41;;;3.22;100.00
20444;BME280;10381;53.730;10.010;2023-02-19T21:43:14;101739.19;;;3.30;100.00
20444;BME280;10381;53.730;10.010;2023-02-19T21:47:14;101732.03;;;3.34;100.00
20444;BME280;10381;53.730;10.010;2023-02-19T21:51:16;101724.16;;;3.34;100.00
20444;BME280;10381;53.730;10.010;2023-02-19T21:55:16;101703.94;;;3.37;100.00
20444;BME280;10381;53.730;10.010;2023-02-19T21:59:18;101689.13;;;3.36;100.00
20444;BME280;10381;53.730;10.010;2023-02-19T22:03:18;101680.63;;;3.52;100.00
20444;BME280;10381;53.730;10.010;2023-02-19T22:07:20;101681.31;;;3.55;100.00
20444;BME280;10381;53.730;10.010;2023-02-19T22:11:20;101693.56;;;3.55;100.00
20444;BME280;10381;53.730;10.010;2023-02-19T22:15:21;101690.16;;;3.53;100.00
20444;BME280;10381;53.730;10.010;2023-02-19T22:19:21;101699.53;;;3.58;100.00
20444;BME280;10381;53.730;10.010;2023-02-19T22:23:21;101692.59;;;3.57;100.00
20444;BME280;10381;53.730;10.010;2023-02-19T22:27:21;101696.25;;;3.53;100.00
20444;BME280;10381;53.730;10.010;2023-02-19T22:31:24;101687.28;;;3.59;100.00